createdAt,value
2022-12-16T00:00:15.712Z,47.72
2022-12-16T00:02:43.404Z,40.97
2022-12-16T00:05:10.898Z,34.67
2022-12-16T00:07:38.347Z,42.55
2022-12-16T00:10:05.965Z,53.92
2022-12-16T00:12:33.428Z,53.17
2022-12-16T00:15:00.883Z,46.10
2022-12-16T00:17:28.418Z,50.47
2022-12-16T00:19:55.853Z,47.10
2022-12-16T00:22:23.892Z,63.55
2022-12-16T00:24:54.589Z,49.15
2022-12-16T00:27:22.865Z,49.55
2022-12-16T00:29:50.342Z,55.30
2022-12-16T00:32:17.839Z,45.92
2022-12-16T00:34:45.201Z,34.88
2022-12-16T00:37:13.443Z,49.38
2022-12-16T00:39:40.880Z,37.10
2022-12-16T00:42:08.389Z,29.73
2022-12-16T00:44:35.790Z,25.60
2022-12-16T00:47:03.284Z,26.90
2022-12-16T00:49:30.684Z,25.75
2022-12-16T00:51:58.162Z,30.38
2022-12-16T00:54:25.579Z,35.83
2022-12-16T00:56:53.068Z,27.35
2022-12-16T00:59:21.292Z,32.63
2022-12-16T01:01:48.761Z,27.52
2022-12-16T01:04:16.374Z,31.80
2022-12-16T01:06:43.789Z,31.08
2022-12-16T01:09:11.256Z,36.38
2022-12-16T01:11:38.658Z,39.17
2022-12-16T01:14:06.146Z,40.92
2022-12-16T01:16:35.154Z,43.95
2022-12-16T01:19:02.694Z,32.38
2022-12-16T01:21:30.104Z,29.92
2022-12-16T01:23:57.529Z,39.58
2022-12-16T01:26:24.944Z,52.42
2022-12-16T01:28:52.404Z,42.25
2022-12-16T01:31:20.558Z,30.95
2022-12-16T01:33:48.090Z,34.80
2022-12-16T01:36:15.463Z,29.98
2022-12-16T01:38:44.431Z,31.38
2022-12-16T01:41:12.465Z,71.85
2022-12-16T01:43:40.737Z,41.70
2022-12-16T01:46:14.290Z,57.05
2022-12-16T01:52:27.636Z,52.67
2022-12-16T01:55:01.161Z,39.08
2022-12-16T01:57:31.821Z,25.90
2022-12-16T01:59:59.357Z,41.08
2022-12-16T02:02:27.312Z,38.63
2022-12-16T02:05:14.094Z,39.10
2022-12-16T02:07:41.525Z,50.85
2022-12-16T02:10:11.965Z,43.28
2022-12-16T02:12:57.118Z,35.72
2022-12-16T02:15:27.856Z,35.75
2022-12-16T02:18:07.057Z,39.50
2022-12-16T02:20:47.730Z,34.75
2022-12-16T02:23:24.379Z,30.48
2022-12-16T02:25:51.809Z,30.60
2022-12-16T02:28:38.472Z,34.83
2022-12-16T02:31:09.076Z,34.17
2022-12-16T02:33:42.490Z,34.67
2022-12-16T02:36:19.151Z,35.60
2022-12-16T02:38:46.562Z,45.35
2022-12-16T02:41:18.517Z,38.47
2022-12-16T02:44:05.871Z,45.60
2022-12-16T02:46:34.699Z,56.80
2022-12-16T02:49:06.225Z,39.67
2022-12-16T02:51:35.261Z,38.25
2022-12-16T02:54:03.010Z,50.63
2022-12-16T02:57:02.853Z,40.08
2022-12-16T02:59:38.897Z,33.30
2022-12-16T03:02:31.683Z,32.67
2022-12-16T03:05:03.777Z,41.72
2022-12-16T03:07:33.518Z,34.47
2022-12-16T03:10:01.954Z,51.72
2022-12-16T03:12:29.424Z,29.27
2022-12-16T03:14:56.993Z,32.65
2022-12-16T03:17:25.680Z,29.98
2022-12-16T03:19:59.266Z,36.97
2022-12-16T03:22:29.501Z,40.03
2022-12-16T03:24:57.218Z,36.70
2022-12-16T03:27:30.719Z,39.70
2022-12-16T03:30:04.302Z,38.75
2022-12-16T03:32:43.945Z,43.42
2022-12-16T03:35:20.713Z,31.35
2022-12-16T03:37:49.333Z,40.35
2022-12-16T03:40:17.333Z,41.00
2022-12-16T03:42:45.350Z,31.58
2022-12-16T03:45:16.996Z,38.03
2022-12-16T03:47:49.657Z,34.25
2022-12-16T03:50:17.945Z,42.67
2022-12-16T03:52:45.323Z,43.28
2022-12-16T03:55:12.873Z,33.88
2022-12-16T03:57:40.245Z,49.08
2022-12-16T04:00:08.183Z,36.03
2022-12-16T04:02:39.348Z,36.40
2022-12-16T04:05:07.420Z,34.65
2022-12-16T04:07:34.814Z,40.20
2022-12-16T04:10:02.365Z,40.10
2022-12-16T04:12:48.606Z,39.45
2022-12-16T04:15:35.117Z,43.25
2022-12-16T04:18:21.202Z,36.13
2022-12-16T04:21:09.303Z,36.90
2022-12-16T04:23:56.173Z,36.05
2022-12-16T04:26:23.833Z,40.53
2022-12-16T04:28:51.216Z,55.80
2022-12-16T04:31:18.731Z,43.65
2022-12-16T04:34:05.110Z,31.25
2022-12-16T04:36:51.236Z,35.30
2022-12-16T04:39:57.309Z,32.13
2022-12-16T04:42:43.419Z,32.70
2022-12-16T04:45:29.700Z,36.65
2022-12-16T04:48:16.035Z,37.50
2022-12-16T04:51:02.447Z,35.75
2022-12-16T04:53:48.488Z,30.95
2022-12-16T04:56:34.452Z,32.28
2022-12-16T04:59:37.387Z,24.75
2022-12-16T05:02:23.482Z,31.75
2022-12-16T05:05:09.712Z,31.10
2022-12-16T05:07:55.639Z,38.53
2022-12-16T05:10:42.016Z,30.63
2022-12-16T05:13:29.916Z,31.80
2022-12-16T05:16:16.576Z,33.67
2022-12-16T05:19:02.946Z,34.80
2022-12-16T05:21:48.918Z,31.88
2022-12-16T05:24:34.939Z,28.80
2022-12-16T05:27:21.395Z,31.77
2022-12-16T05:30:07.361Z,33.85
2022-12-16T05:32:53.616Z,32.28
2022-12-16T05:35:41.936Z,34.95
2022-12-16T05:38:28.178Z,30.38
2022-12-16T05:41:14.563Z,30.65
2022-12-16T05:44:00.610Z,29.05
2022-12-16T05:46:46.699Z,31.10
2022-12-16T05:49:33.137Z,29.88
2022-12-16T05:52:19.081Z,23.30
2022-12-16T05:55:04.946Z,25.23
2022-12-16T06:00:37.185Z,24.63
2022-12-16T06:03:23.398Z,28.98
2022-12-16T06:06:09.942Z,42.88
2022-12-16T06:08:56.054Z,26.63
2022-12-16T06:11:42.298Z,30.42
2022-12-16T06:14:28.581Z,25.45
2022-12-16T06:17:14.810Z,35.42
2022-12-16T06:20:01.042Z,29.42
2022-12-16T06:22:47.035Z,25.77
2022-12-16T06:25:33.346Z,29.75
2022-12-16T06:28:19.758Z,30.70
2022-12-16T06:31:05.646Z,46.85
2022-12-16T06:33:54.843Z,48.00
2022-12-16T06:36:41.171Z,37.30
2022-12-16T06:39:27.256Z,32.38
2022-12-16T06:42:13.161Z,28.58
2022-12-16T06:44:59.066Z,31.75
2022-12-16T06:47:45.298Z,31.00
2022-12-16T06:50:31.270Z,37.97
2022-12-16T06:53:17.710Z,28.77
2022-12-16T06:56:04.089Z,28.42
2022-12-16T06:58:51.785Z,33.65
2022-12-16T07:01:38.279Z,31.48
2022-12-16T07:04:24.251Z,30.77
2022-12-16T07:07:10.580Z,27.83
2022-12-16T07:09:56.876Z,24.38
2022-12-16T07:12:43.161Z,24.25
2022-12-16T07:15:29.667Z,29.40
2022-12-16T07:18:16.149Z,30.15
2022-12-16T07:21:02.294Z,36.38
2022-12-16T07:23:48.380Z,43.03
2022-12-16T07:26:34.722Z,34.40
2022-12-16T07:29:20.910Z,26.67
2022-12-16T07:32:07.008Z,34.70
2022-12-16T07:34:55.645Z,31.50
2022-12-16T07:37:41.925Z,30.90
2022-12-16T07:40:28.645Z,38.35
2022-12-16T07:43:14.905Z,42.05
2022-12-16T07:46:00.874Z,44.00
2022-12-16T07:48:46.969Z,40.60
2022-12-16T07:51:32.913Z,34.60
2022-12-16T07:54:19.337Z,37.47
2022-12-16T07:57:05.468Z,33.70
2022-12-16T07:59:51.811Z,29.05
2022-12-16T08:02:38.283Z,30.98
2022-12-16T08:05:24.553Z,25.75
2022-12-16T08:08:10.678Z,28.75
2022-12-16T08:10:56.760Z,27.63
2022-12-16T08:13:44.544Z,25.33
2022-12-16T08:16:30.706Z,31.30
2022-12-16T08:19:16.770Z,29.90
2022-12-16T08:22:02.895Z,31.02
2022-12-16T08:24:53.316Z,25.95
2022-12-16T08:27:40.097Z,29.05
2022-12-16T08:30:26.617Z,26.52
2022-12-16T08:33:18.832Z,22.98
2022-12-16T08:36:06.630Z,23.95
2022-12-16T08:38:52.952Z,25.30
2022-12-16T08:41:39.603Z,28.92
2022-12-16T08:44:25.610Z,27.05
2022-12-16T08:47:11.611Z,23.35
2022-12-16T08:50:01.661Z,32.90
2022-12-16T08:52:49.136Z,23.75
2022-12-16T08:55:35.168Z,27.98
2022-12-16T08:58:21.163Z,27.27
2022-12-16T09:01:08.219Z,26.08
2022-12-16T09:03:55.139Z,27.75
2022-12-16T09:06:41.562Z,32.55
2022-12-16T09:09:28.593Z,30.50
2022-12-16T09:12:14.649Z,24.58
2022-12-16T09:15:00.573Z,30.13
2022-12-16T09:17:46.653Z,33.88
2022-12-16T09:20:32.875Z,27.80
2022-12-16T09:23:22.860Z,26.85
2022-12-16T09:26:22.710Z,35.95
2022-12-16T09:29:08.867Z,30.50
2022-12-16T09:31:55.286Z,34.50
2022-12-16T09:34:42.162Z,33.17
2022-12-16T09:37:28.330Z,28.42
2022-12-16T09:40:14.403Z,29.95
2022-12-16T09:43:19.383Z,39.28
2022-12-16T09:46:08.879Z,34.30
2022-12-16T09:48:57.969Z,29.02
2022-12-16T09:51:44.781Z,29.30
2022-12-16T09:54:36.028Z,24.52
2022-12-16T09:57:22.715Z,28.48
2022-12-16T10:00:12.922Z,32.33
2022-12-16T10:03:03.393Z,28.15
2022-12-16T10:05:59.629Z,45.90
2022-12-16T10:08:54.241Z,32.92
2022-12-16T10:12:02.939Z,28.20
2022-12-16T10:14:56.094Z,34.13
2022-12-16T10:17:43.436Z,27.63
2022-12-16T10:20:37.818Z,26.25
2022-12-16T10:23:51.206Z,27.80
2022-12-16T10:26:46.474Z,23.20
2022-12-16T10:29:36.612Z,25.50
2022-12-16T10:32:42.715Z,28.55
2022-12-16T10:35:45.119Z,34.15
2022-12-16T10:38:41.643Z,30.85
2022-12-16T10:41:28.064Z,30.70
2022-12-16T10:44:15.189Z,30.08
2022-12-16T10:47:01.316Z,27.35
2022-12-16T10:49:52.347Z,27.15
2022-12-16T10:52:41.038Z,31.60
2022-12-16T10:55:36.763Z,27.92
2022-12-16T10:58:35.619Z,26.25
2022-12-16T11:01:32.842Z,26.65
2022-12-16T11:04:18.878Z,30.50
2022-12-16T11:07:04.756Z,30.33
2022-12-16T11:09:52.363Z,30.35
2022-12-16T11:12:42.010Z,30.38
2022-12-16T11:15:43.031Z,32.25
2022-12-16T11:18:31.072Z,36.38
2022-12-16T11:21:29.982Z,34.67
2022-12-16T11:24:35.675Z,38.50
2022-12-16T11:27:23.353Z,39.67
2022-12-16T11:30:14.289Z,38.13
2022-12-16T11:33:05.725Z,38.63
2022-12-16T11:35:52.983Z,36.42
2022-12-16T11:38:44.089Z,37.15
2022-12-16T11:41:35.003Z,39.83
2022-12-16T11:44:22.338Z,37.22
2022-12-16T11:47:08.682Z,43.13
2022-12-16T11:49:54.748Z,38.47
2022-12-16T11:52:42.471Z,39.85
2022-12-16T11:56:03.568Z,43.17
2022-12-16T11:58:58.959Z,44.20
2022-12-16T12:01:50.214Z,42.92
2022-12-16T12:04:37.123Z,40.72
2022-12-16T12:07:45.461Z,45.28
2022-12-16T12:10:39.581Z,39.70
2022-12-16T12:13:46.467Z,44.60
2022-12-16T12:16:36.587Z,45.08
2022-12-16T12:19:28.875Z,45.65
2022-12-16T12:22:14.952Z,44.85
2022-12-16T12:25:10.165Z,53.13
2022-12-16T12:28:01.674Z,50.50
2022-12-16T12:30:52.166Z,50.03
2022-12-16T12:33:53.110Z,44.50
2022-12-16T12:36:45.617Z,42.67
2022-12-16T12:39:54.373Z,48.97
2022-12-16T12:42:48.936Z,49.28
2022-12-16T12:45:54.581Z,65.25
2022-12-16T12:48:43.803Z,57.55
2022-12-16T12:51:52.527Z,69.57
2022-12-16T12:55:04.740Z,61.80
2022-12-16T12:57:53.400Z,62.70
2022-12-16T13:00:42.460Z,64.93
2022-12-16T13:03:52.012Z,63.53
2022-12-16T13:06:38.588Z,71.25
2022-12-16T13:09:42.813Z,69.55
2022-12-16T13:12:28.967Z,66.93
2022-12-16T13:15:27.037Z,74.50
2022-12-16T13:18:19.058Z,66.35
2022-12-16T13:21:06.022Z,67.95
2022-12-16T13:24:01.904Z,85.25
2022-12-16T13:26:49.272Z,67.40
2022-12-16T13:29:46.141Z,85.43
2022-12-16T13:32:41.378Z,79.88
2022-12-16T13:35:27.634Z,74.40
2022-12-16T13:38:18.740Z,81.18
2022-12-16T13:41:21.702Z,76.50
2022-12-16T13:44:18.159Z,80.70
2022-12-16T13:47:08.757Z,80.95
2022-12-16T13:50:03.688Z,71.85
2022-12-16T13:53:07.994Z,56.42
2022-12-16T13:56:06.433Z,56.92
2022-12-16T13:58:55.466Z,63.22
2022-12-16T14:01:51.199Z,59.58
2022-12-16T14:04:43.833Z,44.40
2022-12-16T14:07:30.496Z,45.05
2022-12-16T14:10:16.707Z,42.88
2022-12-16T14:13:05.754Z,48.45
2022-12-16T14:16:10.806Z,53.63
2022-12-16T14:18:59.949Z,59.63
2022-12-16T14:21:51.555Z,63.92
2022-12-16T14:24:43.248Z,65.25
2022-12-16T14:27:39.922Z,66.50
2022-12-16T14:30:52.182Z,77.65
2022-12-16T14:33:41.458Z,100.68
2022-12-16T14:36:44.371Z,75.22
2022-12-16T14:39:40.353Z,81.40
2022-12-16T14:42:39.501Z,78.22
2022-12-16T14:45:39.685Z,80.57
2022-12-16T14:48:47.479Z,75.47
2022-12-16T14:51:46.060Z,69.40
2022-12-16T14:54:54.624Z,56.00
2022-12-16T14:57:42.730Z,59.60
2022-12-16T15:00:28.839Z,62.55
2022-12-16T15:03:16.377Z,66.47
2022-12-16T15:06:03.666Z,67.43
2022-12-16T15:08:52.289Z,74.70
2022-12-16T15:11:39.177Z,90.80
2022-12-16T15:14:26.073Z,93.22
2022-12-16T15:17:13.019Z,85.32
2022-12-16T15:20:03.973Z,83.65
2022-12-16T15:22:50.815Z,79.38
2022-12-16T15:25:44.465Z,77.18
2022-12-16T15:28:59.530Z,78.00
2022-12-16T15:31:53.106Z,75.18
2022-12-16T15:34:39.378Z,87.55
2022-12-16T15:37:42.501Z,78.50
2022-12-16T15:40:54.687Z,79.18
2022-12-16T15:43:54.835Z,78.68
2022-12-16T15:46:47.239Z,78.78
2022-12-16T15:49:36.111Z,70.70
2022-12-16T15:52:22.590Z,79.90
2022-12-16T15:55:12.612Z,74.43
2022-12-16T15:57:58.812Z,69.93
2022-12-16T16:00:46.391Z,64.70
2022-12-16T16:03:44.062Z,71.40
2022-12-16T16:06:37.397Z,68.65
2022-12-16T16:09:32.210Z,72.93
2022-12-16T16:12:18.230Z,80.75
2022-12-16T16:15:04.552Z,82.28
2022-12-16T16:17:50.675Z,65.90
2022-12-16T16:20:37.454Z,74.68
2022-12-16T16:23:24.028Z,55.60
2022-12-16T16:26:10.233Z,51.90
2022-12-16T16:28:56.521Z,50.83
2022-12-16T16:31:42.754Z,53.45
2022-12-16T16:34:30.960Z,55.00
2022-12-16T16:37:17.755Z,79.65
2022-12-16T16:40:04.175Z,61.22
2022-12-16T16:42:50.297Z,58.95
2022-12-16T16:45:36.580Z,56.60
2022-12-16T16:48:29.593Z,62.10
2022-12-16T16:51:16.499Z,67.80
2022-12-16T16:54:03.034Z,60.00
2022-12-16T16:56:51.053Z,55.78
2022-12-16T16:59:37.129Z,51.70
2022-12-16T17:02:40.208Z,57.85
2022-12-16T17:05:27.150Z,59.25
2022-12-16T17:08:16.289Z,58.97
2022-12-16T17:11:02.539Z,58.92
2022-12-16T17:13:56.206Z,61.35
2022-12-16T17:16:42.415Z,61.65
2022-12-16T17:19:28.706Z,57.80
2022-12-16T17:22:14.961Z,61.08
2022-12-16T17:25:00.748Z,58.78
2022-12-16T17:30:39.755Z,64.75
2022-12-16T17:33:29.393Z,63.53
2022-12-16T17:36:15.295Z,50.20
2022-12-16T17:39:03.002Z,61.85
2022-12-16T17:41:50.395Z,60.88
2022-12-16T17:44:37.191Z,65.22
2022-12-16T17:47:23.230Z,73.30
2022-12-16T17:50:12.027Z,73.05
2022-12-16T17:52:59.735Z,71.85
2022-12-16T17:55:45.871Z,71.05
2022-12-16T17:58:32.000Z,70.13
2022-12-16T18:01:21.488Z,67.13
2022-12-16T18:04:08.045Z,70.70
2022-12-16T18:06:54.228Z,74.63
2022-12-16T18:09:40.578Z,74.32
2022-12-16T18:12:26.698Z,76.60
2022-12-16T18:15:12.825Z,70.35
2022-12-16T18:17:59.005Z,81.63
2022-12-16T18:20:45.264Z,80.65
2022-12-16T18:23:31.641Z,77.70
2022-12-16T18:26:21.819Z,75.63
2022-12-16T18:29:07.979Z,67.32
2022-12-16T18:31:54.242Z,74.70
2022-12-16T18:34:40.886Z,82.00
2022-12-16T18:37:30.497Z,79.22
2022-12-16T18:40:16.555Z,83.43
2022-12-16T18:43:02.530Z,84.75
2022-12-16T18:45:48.728Z,88.20
2022-12-16T18:48:34.688Z,88.50
2022-12-16T18:51:21.132Z,86.03
2022-12-16T18:54:09.364Z,96.60
2022-12-16T18:56:55.503Z,105.47
2022-12-16T18:59:41.562Z,96.68
2022-12-16T19:02:28.123Z,100.40
2022-12-16T19:05:14.561Z,101.45
2022-12-16T19:08:00.797Z,106.30
2022-12-16T19:10:46.866Z,115.15
2022-12-16T19:13:35.842Z,102.93
2022-12-16T19:16:22.178Z,99.20
2022-12-16T19:19:16.368Z,109.85
2022-12-16T19:22:05.816Z,106.18
2022-12-16T19:24:51.970Z,92.28
2022-12-16T19:27:38.415Z,94.93
2022-12-16T19:30:25.103Z,85.03
2022-12-16T19:33:11.226Z,92.45
2022-12-16T19:35:57.163Z,99.60
2022-12-16T19:38:44.134Z,95.45
2022-12-16T19:41:34.364Z,116.28
2022-12-16T19:44:20.691Z,99.15
2022-12-16T19:47:06.873Z,102.55
2022-12-16T19:49:53.406Z,107.45
2022-12-16T19:52:40.868Z,111.72
2022-12-16T19:55:27.076Z,112.95
2022-12-16T19:58:13.480Z,103.28
2022-12-16T20:01:00.044Z,107.75
2022-12-16T20:04:03.316Z,107.15
2022-12-16T20:06:51.709Z,94.82
2022-12-16T20:09:38.025Z,91.30
2022-12-16T20:12:24.142Z,90.45
2022-12-16T20:15:11.554Z,91.57
2022-12-16T20:17:57.902Z,93.30
2022-12-16T20:20:44.175Z,82.82
2022-12-16T20:23:30.229Z,85.32
2022-12-16T20:26:17.393Z,81.75
2022-12-16T20:29:03.851Z,75.78
2022-12-16T20:31:50.298Z,82.82
2022-12-16T20:34:36.579Z,77.35
2022-12-16T20:37:22.583Z,79.72
2022-12-16T20:40:08.927Z,74.72
2022-12-16T20:42:56.279Z,76.25
2022-12-16T20:45:42.302Z,74.57
2022-12-16T20:48:32.483Z,73.05
2022-12-16T20:51:25.858Z,68.40
2022-12-16T20:54:12.817Z,62.55
2022-12-16T20:56:59.128Z,63.10
2022-12-16T20:59:45.160Z,58.28
2022-12-16T21:02:34.554Z,60.70
2022-12-16T21:05:21.553Z,60.28
2022-12-16T21:08:07.417Z,63.92
2022-12-16T21:13:59.466Z,54.83
2022-12-16T21:16:45.487Z,59.10
2022-12-16T21:22:38.054Z,59.10
2022-12-16T21:25:24.918Z,66.30
2022-12-16T21:28:34.813Z,65.45
2022-12-16T21:31:20.727Z,68.32
2022-12-16T21:34:06.622Z,63.83
2022-12-16T21:36:52.934Z,63.13
2022-12-16T21:39:42.011Z,68.13
2022-12-16T21:42:34.669Z,71.50
2022-12-16T21:45:21.729Z,62.08
2022-12-16T21:48:11.639Z,63.90
2022-12-16T21:50:57.827Z,67.25
2022-12-16T21:53:44.090Z,73.90
2022-12-16T21:56:32.202Z,76.97
2022-12-16T21:59:29.046Z,75.38
2022-12-16T22:02:15.178Z,81.80
2022-12-16T22:05:01.306Z,79.57
2022-12-16T22:07:47.802Z,83.75
2022-12-16T22:10:33.782Z,77.88
2022-12-16T22:13:20.171Z,75.07
2022-12-16T22:16:18.827Z,73.97
2022-12-16T22:19:04.758Z,72.28
2022-12-16T22:21:50.856Z,61.55
2022-12-16T22:24:37.671Z,61.50
2022-12-16T22:27:23.840Z,62.58
2022-12-16T22:30:09.702Z,57.60
2022-12-16T22:36:02.104Z,54.90
2022-12-16T22:36:21.931Z,63.35
2022-12-16T22:38:51.257Z,52.92
2022-12-16T22:41:38.275Z,51.33
2022-12-16T22:44:24.310Z,51.72
2022-12-16T22:47:10.426Z,54.38
2022-12-16T22:49:56.360Z,54.63
2022-12-16T22:52:42.382Z,54.88
2022-12-16T22:55:28.318Z,52.17
2022-12-16T22:58:18.818Z,51.28
2022-12-16T23:01:04.788Z,49.00
2022-12-16T23:03:51.970Z,60.72
2022-12-16T23:06:38.289Z,62.13
2022-12-16T23:09:24.164Z,61.15
2022-12-16T23:12:10.753Z,64.90
2022-12-16T23:14:56.867Z,57.50
2022-12-16T23:17:42.907Z,57.95
2022-12-16T23:20:29.460Z,57.60
2022-12-16T23:23:15.880Z,61.88
2022-12-16T23:26:02.222Z,56.22
2022-12-16T23:28:48.318Z,60.00
2022-12-16T23:31:34.665Z,65.10
2022-12-16T23:34:20.700Z,61.85
2022-12-16T23:37:06.643Z,60.63
2022-12-16T23:39:53.610Z,63.00
2022-12-16T23:42:42.248Z,64.22
2022-12-16T23:45:28.528Z,74.45
2022-12-16T23:48:21.212Z,83.13
2022-12-16T23:51:07.547Z,71.82
2022-12-16T23:53:53.931Z,69.45
2022-12-16T23:56:43.066Z,63.97
2022-12-16T23:59:29.417Z,60.15
